createdAt,value
2022-09-22T00:00:57.523Z,12.99
2022-09-22T00:03:31.348Z,12.98
2022-09-22T00:06:00.478Z,12.99
2022-09-22T00:08:30.371Z,12.98
2022-09-22T00:11:02.415Z,12.96
2022-09-22T00:13:31.988Z,12.98
2022-09-22T00:16:00.871Z,12.97
2022-09-22T00:18:29.261Z,12.93
2022-09-22T00:20:57.102Z,12.90
2022-09-22T00:23:25.651Z,12.95
2022-09-22T00:25:53.565Z,13.00
2022-09-22T00:28:22.323Z,13.05
2022-09-22T00:30:50.190Z,13.12
2022-09-22T00:33:18.174Z,13.17
2022-09-22T00:35:55.943Z,13.21
2022-09-22T00:38:23.739Z,13.25
2022-09-22T00:40:51.678Z,13.27
2022-09-22T00:43:20.498Z,13.30
2022-09-22T00:45:50.020Z,13.34
2022-09-22T00:48:19.818Z,13.37
2022-09-22T00:50:48.592Z,13.38
2022-09-22T00:53:17.161Z,13.37
2022-09-22T00:55:47.387Z,13.36
2022-09-22T00:58:16.780Z,13.36
2022-09-22T01:00:45.246Z,13.35
2022-09-22T01:03:14.221Z,13.33
2022-09-22T01:05:43.542Z,13.28
2022-09-22T01:08:12.047Z,13.25
2022-09-22T01:10:39.958Z,13.24
2022-09-22T01:13:14.774Z,13.23
2022-09-22T01:15:46.430Z,13.22
2022-09-22T01:18:19.201Z,13.18
2022-09-22T01:21:01.841Z,13.16
2022-09-22T01:23:47.087Z,13.15
2022-09-22T01:26:35.135Z,13.14
2022-09-22T01:29:22.946Z,13.12
2022-09-22T01:31:55.013Z,13.11
2022-09-22T01:34:27.379Z,13.09
2022-09-22T01:37:02.727Z,13.04
2022-09-22T01:39:34.224Z,13.00
2022-09-22T01:42:05.732Z,12.96
2022-09-22T01:44:35.566Z,12.93
2022-09-22T01:47:06.267Z,12.92
2022-09-22T01:49:36.026Z,12.90
2022-09-22T01:52:07.416Z,12.87
2022-09-22T01:54:38.586Z,12.84
2022-09-22T01:57:11.671Z,12.81
2022-09-22T01:59:40.485Z,12.77
2022-09-22T02:02:12.745Z,12.75
2022-09-22T02:04:45.198Z,12.72
2022-09-22T02:07:15.827Z,12.71
2022-09-22T02:09:46.771Z,12.68
2022-09-22T02:12:19.239Z,12.64
2022-09-22T02:14:47.221Z,12.60
2022-09-22T02:17:15.609Z,12.57
2022-09-22T02:19:43.487Z,12.55
2022-09-22T02:22:12.124Z,12.50
2022-09-22T02:24:41.227Z,12.49
2022-09-22T02:27:11.522Z,12.48
2022-09-22T02:29:41.067Z,12.48
2022-09-22T02:32:10.735Z,12.48
2022-09-22T02:34:38.984Z,12.47
2022-09-22T02:37:12.867Z,12.45
2022-09-22T02:39:42.766Z,12.40
2022-09-22T02:42:15.958Z,12.37
2022-09-22T02:44:47.595Z,12.34
2022-09-22T02:47:17.749Z,12.32
2022-09-22T02:49:45.675Z,12.33
2022-09-22T02:52:14.098Z,12.33
2022-09-22T02:54:42.070Z,12.35
2022-09-22T02:57:10.244Z,12.37
2022-09-22T02:59:38.075Z,12.40
2022-09-22T03:02:05.925Z,12.42
2022-09-22T03:04:33.922Z,12.43
2022-09-22T03:07:01.750Z,12.45
2022-09-22T03:09:29.522Z,12.47
2022-09-22T03:11:57.422Z,12.48
2022-09-22T03:14:25.331Z,12.50
2022-09-22T03:16:53.114Z,12.49
2022-09-22T03:19:20.963Z,12.45
2022-09-22T03:21:48.835Z,12.40
2022-09-22T03:24:16.685Z,12.36
2022-09-22T03:26:44.596Z,12.34
2022-09-22T03:29:12.650Z,12.29
2022-09-22T03:31:40.564Z,12.24
2022-09-22T03:34:08.519Z,12.21
2022-09-22T03:36:36.448Z,12.19
2022-09-22T03:39:04.318Z,12.13
2022-09-22T03:41:32.158Z,12.12
2022-09-22T03:43:59.998Z,12.09
2022-09-22T03:46:27.965Z,12.03
2022-09-22T03:48:56.259Z,11.99
2022-09-22T03:51:24.137Z,11.98
2022-09-22T03:53:52.003Z,11.98
2022-09-22T03:56:19.891Z,11.98
2022-09-22T03:58:47.875Z,11.98
2022-09-22T04:01:15.753Z,11.97
2022-09-22T04:03:43.857Z,11.93
2022-09-22T04:06:11.864Z,11.90
2022-09-22T04:08:40.119Z,11.86
2022-09-22T04:11:07.935Z,11.84
2022-09-22T04:13:35.865Z,11.82
2022-09-22T04:16:04.731Z,11.80
2022-09-22T04:18:32.803Z,11.81
2022-09-22T04:21:00.894Z,11.80
2022-09-22T04:23:28.757Z,11.82
2022-09-22T04:25:56.651Z,11.84
2022-09-22T04:28:24.480Z,11.85
2022-09-22T04:30:52.453Z,11.85
2022-09-22T04:33:20.463Z,11.87
2022-09-22T04:35:48.995Z,11.90
2022-09-22T04:38:16.918Z,11.94
2022-09-22T04:40:45.506Z,11.98
2022-09-22T04:43:13.455Z,11.93
2022-09-22T04:45:42.968Z,11.90
2022-09-22T04:48:10.689Z,11.95
2022-09-22T04:50:38.458Z,12.00
2022-09-22T04:53:07.233Z,12.05
2022-09-22T04:55:35.267Z,12.10
2022-09-22T04:58:03.023Z,12.12
2022-09-22T05:00:31.030Z,12.15
2022-09-22T05:03:00.029Z,12.17
2022-09-22T05:05:27.834Z,12.17
2022-09-22T05:07:55.788Z,12.18
2022-09-22T05:10:24.655Z,12.21
2022-09-22T05:12:53.375Z,12.24
2022-09-22T05:15:21.954Z,12.25
2022-09-22T05:17:50.718Z,12.27
2022-09-22T05:20:19.312Z,12.28
2022-09-22T05:22:47.507Z,12.32
2022-09-22T05:25:16.967Z,12.41
2022-09-22T05:27:45.851Z,12.61
2022-09-22T05:30:14.434Z,12.81
2022-09-22T05:32:43.859Z,13.08
2022-09-22T05:35:13.053Z,13.36
2022-09-22T05:37:42.351Z,13.62
2022-09-22T05:40:11.242Z,13.85
2022-09-22T05:42:40.986Z,14.06
2022-09-22T05:45:09.903Z,14.32
2022-09-22T05:47:38.929Z,14.60
2022-09-22T05:50:09.001Z,14.88
2022-09-22T05:52:36.861Z,15.14
2022-09-22T05:55:06.413Z,15.39
2022-09-22T05:57:34.359Z,15.66
2022-09-22T06:00:04.202Z,15.94
2022-09-22T06:02:32.230Z,16.22
2022-09-22T06:05:00.585Z,16.49
2022-09-22T06:07:28.433Z,16.83
2022-09-22T06:09:56.422Z,17.16
2022-09-22T06:12:24.543Z,17.48
2022-09-22T06:14:52.374Z,17.78
2022-09-22T06:17:20.331Z,18.02
2022-09-22T06:19:49.711Z,18.17
2022-09-22T06:22:17.838Z,18.31
2022-09-22T06:24:45.543Z,18.60
2022-09-22T06:27:13.292Z,18.98
2022-09-22T06:29:41.786Z,19.18
2022-09-22T06:32:09.900Z,19.25
2022-09-22T06:34:37.758Z,19.37
2022-09-22T06:37:07.843Z,19.48
2022-09-22T06:39:37.045Z,19.43
2022-09-22T06:42:05.232Z,19.21
2022-09-22T06:44:33.159Z,19.13
2022-09-22T06:47:04.679Z,19.07
2022-09-22T06:49:32.546Z,18.98
2022-09-22T06:52:00.495Z,18.79
2022-09-22T06:54:28.454Z,18.59
2022-09-22T06:56:56.339Z,18.45
2022-09-22T06:59:24.162Z,18.47
2022-09-22T07:01:52.093Z,18.58
2022-09-22T07:04:21.875Z,18.79
2022-09-22T07:06:50.257Z,18.86
2022-09-22T07:09:18.163Z,19.10
2022-09-22T07:11:46.807Z,19.46
2022-09-22T07:14:14.811Z,19.77
2022-09-22T07:16:43.438Z,20.00
2022-09-22T07:19:11.416Z,20.22
2022-09-22T07:21:39.931Z,20.37
2022-09-22T07:24:08.154Z,20.57
2022-09-22T07:26:37.807Z,20.86
2022-09-22T07:29:07.791Z,21.20
2022-09-22T07:31:36.129Z,21.48
2022-09-22T07:34:04.178Z,21.50
2022-09-22T07:36:33.158Z,21.33
2022-09-22T07:39:04.563Z,21.25
2022-09-22T07:41:40.811Z,21.43
2022-09-22T07:44:27.283Z,21.70
2022-09-22T07:46:55.682Z,21.83
2022-09-22T07:49:23.748Z,21.89
2022-09-22T07:51:54.153Z,21.95
2022-09-22T07:54:22.320Z,22.14
2022-09-22T07:56:51.498Z,22.25
2022-09-22T07:59:19.321Z,22.40
2022-09-22T08:01:48.633Z,22.60
2022-09-22T08:04:18.371Z,22.59
2022-09-22T08:06:48.091Z,22.52
2022-09-22T08:09:17.706Z,22.57
2022-09-22T08:11:47.928Z,22.60
2022-09-22T08:14:17.632Z,22.80
2022-09-22T08:16:45.735Z,22.99
2022-09-22T08:19:14.289Z,23.11
2022-09-22T08:21:48.971Z,23.19
2022-09-22T08:24:21.409Z,23.14
2022-09-22T08:26:50.294Z,23.04
2022-09-22T08:29:18.162Z,22.93
2022-09-22T08:31:46.787Z,22.82
2022-09-22T08:34:15.892Z,22.76
2022-09-22T08:36:47.695Z,22.64
2022-09-22T08:39:16.137Z,22.59
2022-09-22T08:41:49.340Z,22.52
2022-09-22T08:44:19.855Z,22.45
2022-09-22T08:46:47.617Z,22.30
2022-09-22T08:49:36.399Z,22.22
2022-09-22T08:52:06.519Z,22.25
2022-09-22T08:54:35.036Z,22.39
2022-09-22T08:57:22.911Z,22.56
2022-09-22T08:59:53.256Z,22.48
2022-09-22T09:02:37.908Z,22.25
2022-09-22T09:05:23.307Z,22.13
2022-09-22T09:07:58.160Z,22.10
2022-09-22T09:10:32.304Z,22.19
2022-09-22T09:13:11.945Z,22.29
2022-09-22T09:15:46.759Z,22.12
2022-09-22T09:18:15.588Z,21.67
2022-09-22T09:20:45.114Z,21.40
2022-09-22T09:23:17.979Z,20.97
2022-09-22T09:25:48.177Z,20.63
2022-09-22T09:28:18.523Z,20.63
2022-09-22T09:30:50.666Z,20.71
2022-09-22T09:33:23.590Z,20.97
2022-09-22T09:35:52.977Z,21.27
2022-09-22T09:38:24.963Z,21.44
2022-09-22T09:40:57.082Z,21.42
2022-09-22T09:43:27.165Z,21.43
2022-09-22T09:46:00.375Z,21.53
2022-09-22T09:48:34.028Z,21.51
2022-09-22T09:51:03.056Z,21.46
2022-09-22T09:53:31.923Z,21.42
2022-09-22T09:56:00.336Z,21.34
2022-09-22T09:58:46.496Z,21.16
2022-09-22T10:01:14.789Z,20.79
2022-09-22T10:03:46.313Z,20.67
2022-09-22T10:06:15.337Z,20.56
2022-09-22T10:08:44.515Z,20.55
2022-09-22T10:11:14.456Z,20.63
2022-09-22T10:13:43.510Z,20.65
2022-09-22T10:16:29.926Z,20.61
2022-09-22T10:19:16.069Z,20.77
2022-09-22T10:21:44.018Z,21.08
2022-09-22T10:24:22.991Z,21.27
2022-09-22T10:26:55.390Z,21.54
2022-09-22T10:29:24.489Z,21.79
2022-09-22T10:32:03.604Z,22.00
2022-09-22T10:34:33.064Z,22.29
2022-09-22T10:37:02.674Z,22.24
2022-09-22T10:39:35.610Z,22.12
2022-09-22T10:42:07.441Z,22.09
2022-09-22T10:44:38.936Z,22.00
2022-09-22T10:47:16.210Z,21.91
2022-09-22T10:49:53.614Z,21.66
2022-09-22T10:52:25.160Z,21.12
2022-09-22T10:55:04.310Z,20.69
2022-09-22T10:57:47.190Z,20.41
2022-09-22T11:00:16.197Z,20.14
2022-09-22T11:02:58.157Z,20.02
2022-09-22T11:05:52.294Z,20.00
2022-09-22T11:08:38.928Z,19.95
2022-09-22T11:11:29.775Z,19.97
2022-09-22T11:14:06.849Z,20.13
2022-09-22T11:16:42.133Z,20.18
2022-09-22T11:19:19.729Z,20.00
2022-09-22T11:21:59.383Z,19.85
2022-09-22T11:24:38.690Z,19.75
2022-09-22T11:27:13.445Z,19.59
2022-09-22T11:29:46.702Z,19.61
2022-09-22T11:32:23.594Z,19.64
2022-09-22T11:35:00.351Z,19.70
2022-09-22T11:37:34.813Z,19.77
2022-09-22T11:40:16.724Z,19.73
2022-09-22T11:42:51.769Z,19.62
2022-09-22T11:45:27.035Z,19.61
2022-09-22T11:48:02.698Z,19.70
2022-09-22T11:50:35.109Z,19.80
2022-09-22T11:53:20.331Z,19.87
2022-09-22T11:55:56.125Z,19.95
2022-09-22T11:58:26.634Z,20.02
2022-09-22T12:00:58.696Z,20.05
2022-09-22T12:03:27.173Z,19.96
2022-09-22T12:05:59.019Z,19.80
2022-09-22T12:08:29.763Z,19.80
2022-09-22T12:10:58.149Z,19.86
2022-09-22T12:13:27.563Z,19.85
2022-09-22T12:16:01.104Z,19.87
2022-09-22T12:18:35.580Z,19.86
2022-09-22T12:21:06.231Z,19.87
2022-09-22T12:23:38.683Z,19.97
2022-09-22T12:26:07.984Z,19.90
2022-09-22T12:28:39.318Z,19.81
2022-09-22T12:31:09.738Z,19.81
2022-09-22T12:33:38.135Z,19.73
2022-09-22T12:36:06.706Z,19.68
2022-09-22T12:38:34.775Z,19.72
2022-09-22T12:41:03.774Z,19.79
2022-09-22T12:43:32.562Z,19.80
2022-09-22T12:46:02.798Z,19.64
2022-09-22T12:48:32.674Z,19.59
2022-09-22T12:51:17.187Z,19.58
2022-09-22T12:56:34.974Z,19.53
2022-09-22T12:59:02.818Z,19.51
2022-09-22T13:01:32.188Z,19.44
2022-09-22T13:04:14.076Z,19.38
2022-09-22T13:06:58.216Z,19.31
2022-09-22T13:09:29.397Z,19.27
2022-09-22T13:12:17.364Z,19.27
2022-09-22T13:15:03.198Z,19.31
2022-09-22T13:17:39.155Z,19.32
2022-09-22T13:20:17.874Z,19.37
2022-09-22T13:22:45.729Z,19.37
2022-09-22T13:25:21.007Z,19.40
2022-09-22T13:27:50.822Z,19.43
2022-09-22T13:30:18.939Z,19.46
2022-09-22T13:32:50.483Z,19.47
2022-09-22T13:35:25.377Z,19.47
2022-09-22T13:37:55.607Z,19.47
2022-09-22T13:40:26.055Z,19.45
2022-09-22T13:42:55.104Z,19.44
2022-09-22T13:45:25.631Z,19.44
2022-09-22T13:47:54.703Z,19.42
2022-09-22T13:50:23.095Z,19.41
2022-09-22T13:52:51.579Z,19.42
2022-09-22T13:55:22.000Z,19.42
2022-09-22T13:57:51.003Z,19.43
2022-09-22T14:00:23.914Z,19.44
2022-09-22T14:02:51.897Z,19.42
2022-09-22T14:05:21.071Z,19.40
2022-09-22T14:08:10.617Z,19.37
2022-09-22T14:10:40.151Z,19.34
2022-09-22T14:13:22.055Z,19.29
2022-09-22T14:15:50.206Z,19.26
2022-09-22T14:18:22.280Z,19.22
2022-09-22T14:20:52.399Z,19.20
2022-09-22T14:23:25.770Z,19.13
2022-09-22T14:25:53.939Z,18.95
2022-09-22T14:28:24.386Z,18.77
2022-09-22T14:30:52.754Z,18.58
2022-09-22T14:33:22.604Z,18.47
2022-09-22T14:35:52.386Z,18.43
2022-09-22T14:38:25.371Z,18.44
2022-09-22T14:40:54.480Z,18.47
2022-09-22T14:43:23.999Z,18.51
2022-09-22T14:45:58.604Z,18.55
2022-09-22T14:48:30.674Z,18.58
2022-09-22T14:51:01.590Z,18.61
2022-09-22T14:53:32.021Z,18.63
2022-09-22T14:56:05.858Z,18.66
2022-09-22T14:58:40.272Z,18.69
2022-09-22T15:01:36.938Z,18.71
2022-09-22T15:04:10.329Z,18.73
2022-09-22T15:06:39.299Z,18.75
2022-09-22T15:09:12.753Z,18.78
2022-09-22T15:11:48.370Z,18.80
2022-09-22T15:14:32.123Z,18.82
2022-09-22T15:17:20.367Z,18.83
2022-09-22T15:19:50.483Z,18.82
2022-09-22T15:22:18.495Z,18.83
2022-09-22T15:24:46.483Z,18.85
2022-09-22T15:27:17.035Z,18.87
2022-09-22T15:29:45.635Z,18.88
2022-09-22T15:32:13.487Z,18.88
2022-09-22T15:34:44.111Z,18.89
2022-09-22T15:37:14.760Z,18.87
2022-09-22T15:39:42.642Z,18.85
2022-09-22T15:42:11.135Z,18.85
2022-09-22T15:44:39.114Z,18.85
2022-09-22T15:47:12.908Z,18.84
2022-09-22T15:49:42.158Z,18.84
2022-09-22T15:52:10.633Z,18.83
2022-09-22T15:54:38.513Z,18.82
2022-09-22T15:57:06.507Z,18.79
2022-09-22T15:59:34.759Z,18.76
2022-09-22T16:02:02.754Z,18.74
2022-09-22T16:04:33.593Z,18.71
2022-09-22T16:07:04.595Z,18.69
2022-09-22T16:09:32.495Z,18.67
2022-09-22T16:12:00.747Z,18.64
2022-09-22T16:14:28.791Z,18.60
2022-09-22T16:16:56.724Z,18.56
2022-09-22T16:19:29.780Z,18.52
2022-09-22T16:21:57.591Z,18.48
2022-09-22T16:24:27.446Z,18.44
2022-09-22T16:26:55.675Z,18.40
2022-09-22T16:29:24.475Z,18.36
2022-09-22T16:31:52.331Z,18.31
2022-09-22T16:34:20.606Z,18.27
2022-09-22T16:36:48.447Z,18.25
2022-09-22T16:39:17.016Z,18.22
2022-09-22T16:41:45.609Z,18.15
2022-09-22T16:44:13.644Z,18.04
2022-09-22T16:46:41.536Z,17.97
2022-09-22T16:49:11.143Z,17.96
2022-09-22T16:51:40.332Z,17.97
2022-09-22T16:54:09.948Z,17.94
2022-09-22T16:56:38.345Z,17.93
2022-09-22T16:59:06.315Z,17.91
2022-09-22T17:01:35.863Z,17.84
2022-09-22T17:04:04.506Z,17.74
2022-09-22T17:06:32.569Z,17.63
2022-09-22T17:09:00.433Z,17.56
2022-09-22T17:11:29.551Z,17.53
2022-09-22T17:14:00.762Z,17.51
2022-09-22T17:16:29.679Z,17.47
2022-09-22T17:18:59.029Z,17.46
2022-09-22T17:21:29.257Z,17.39
2022-09-22T17:24:00.219Z,17.29
2022-09-22T17:26:29.570Z,17.21
2022-09-22T17:28:59.218Z,17.15
2022-09-22T17:31:27.518Z,17.12
2022-09-22T17:33:55.352Z,17.11
2022-09-22T17:36:24.240Z,17.05
2022-09-22T17:38:53.276Z,17.00
2022-09-22T17:41:22.510Z,16.94
2022-09-22T17:43:52.523Z,16.86
2022-09-22T17:46:20.406Z,16.78
2022-09-22T17:49:06.821Z,16.69
2022-09-22T17:51:52.963Z,16.65
2022-09-22T17:54:40.088Z,16.62
2022-09-22T17:57:08.745Z,16.60
2022-09-22T17:59:37.046Z,16.55
2022-09-22T18:02:08.033Z,16.47
2022-09-22T18:04:36.323Z,16.34
2022-09-22T18:07:06.378Z,16.18
2022-09-22T18:09:35.066Z,16.09
2022-09-22T18:12:03.674Z,16.06
2022-09-22T18:14:32.906Z,16.02
2022-09-22T18:17:04.501Z,15.98
2022-09-22T18:19:36.211Z,15.90
2022-09-22T18:22:05.661Z,15.85
2022-09-22T18:24:33.913Z,15.80
2022-09-22T18:27:03.294Z,15.77
2022-09-22T18:29:31.788Z,15.74
2022-09-22T18:31:59.604Z,15.72
2022-09-22T18:34:31.154Z,15.69
2022-09-22T18:36:59.871Z,15.69
2022-09-22T18:39:28.237Z,15.68
2022-09-22T18:41:56.947Z,15.68
2022-09-22T18:44:27.578Z,15.67
2022-09-22T18:46:55.959Z,15.66
2022-09-22T18:49:23.904Z,15.63
2022-09-22T18:51:52.535Z,15.55
2022-09-22T18:54:21.507Z,15.45
2022-09-22T18:56:49.983Z,15.33
2022-09-22T18:59:19.173Z,15.26
2022-09-22T19:01:48.852Z,15.17
2022-09-22T19:04:18.677Z,15.11
2022-09-22T19:07:05.958Z,15.09
2022-09-22T19:09:33.903Z,15.06
2022-09-22T19:12:05.130Z,15.08
2022-09-22T19:14:38.324Z,15.12
2022-09-22T19:17:07.028Z,15.15
2022-09-22T19:19:36.399Z,15.18
2022-09-22T19:22:08.385Z,15.21
2022-09-22T19:24:37.110Z,15.23
2022-09-22T19:27:05.797Z,15.26
2022-09-22T19:29:34.115Z,15.28
2022-09-22T19:32:02.340Z,15.31
2022-09-22T19:34:30.325Z,15.33
2022-09-22T19:36:58.326Z,15.35
2022-09-22T19:39:26.719Z,15.38
2022-09-22T19:41:55.608Z,15.39
2022-09-22T19:44:23.509Z,15.39
2022-09-22T19:46:51.491Z,15.39
2022-09-22T19:49:19.475Z,15.39
2022-09-22T19:51:47.323Z,15.41
2022-09-22T19:54:15.165Z,15.42
2022-09-22T19:56:42.963Z,15.40
2022-09-22T19:59:10.699Z,15.31
2022-09-22T20:01:39.688Z,15.31
2022-09-22T20:04:12.463Z,15.31
2022-09-22T20:06:40.644Z,15.33
2022-09-22T20:09:08.637Z,15.34
2022-09-22T20:11:38.311Z,15.34
2022-09-22T20:14:22.212Z,15.34
2022-09-22T20:16:51.718Z,15.33
2022-09-22T20:19:20.245Z,15.32
2022-09-22T20:21:49.158Z,15.32
2022-09-22T20:24:18.178Z,15.34
2022-09-22T20:26:46.458Z,15.35
2022-09-22T20:29:17.536Z,15.36
2022-09-22T20:31:45.338Z,15.38
2022-09-22T20:34:14.487Z,15.39
2022-09-22T20:36:42.897Z,15.39
2022-09-22T20:39:13.008Z,15.40
2022-09-22T20:41:41.579Z,15.33
2022-09-22T20:44:12.474Z,15.25
2022-09-22T20:46:40.408Z,15.15
2022-09-22T20:49:11.754Z,15.02
2022-09-22T20:51:39.781Z,14.84
2022-09-22T20:54:07.841Z,14.70
2022-09-22T20:56:38.434Z,14.61
2022-09-22T20:59:08.709Z,14.56
2022-09-22T21:01:36.852Z,14.46
2022-09-22T21:04:05.180Z,14.34
2022-09-22T21:06:33.307Z,14.33
2022-09-22T21:09:33.754Z,14.34
2022-09-22T21:12:01.840Z,14.36
2022-09-22T21:14:32.752Z,14.35
2022-09-22T21:17:06.006Z,14.33
2022-09-22T21:19:34.087Z,14.31
2022-09-22T21:22:02.149Z,14.30
2022-09-22T21:24:31.747Z,14.31
2022-09-22T21:26:59.768Z,14.31
2022-09-22T21:29:28.135Z,14.28
2022-09-22T21:31:57.335Z,14.26
2022-09-22T21:34:25.239Z,14.27
2022-09-22T21:36:53.292Z,14.30
2022-09-22T21:39:21.064Z,14.27
2022-09-22T21:41:49.029Z,14.31
2022-09-22T21:44:16.927Z,14.33
2022-09-22T21:46:47.054Z,14.35
2022-09-22T21:49:14.973Z,14.37
2022-09-22T21:51:43.723Z,14.40
2022-09-22T21:54:12.912Z,14.42
2022-09-22T21:56:41.423Z,14.41
2022-09-22T21:59:10.679Z,14.40
2022-09-22T22:01:39.833Z,14.40
2022-09-22T22:04:08.306Z,14.39
2022-09-22T22:06:39.510Z,14.37
2022-09-22T22:09:10.750Z,14.34
2022-09-22T22:11:39.318Z,14.31
2022-09-22T22:14:08.008Z,14.27
2022-09-22T22:16:37.688Z,14.24
2022-09-22T22:19:06.236Z,14.26
2022-09-22T22:21:34.680Z,14.28
2022-09-22T22:24:18.162Z,14.31
2022-09-22T22:26:48.847Z,14.30
2022-09-22T22:29:17.301Z,14.28
2022-09-22T22:31:45.286Z,14.27
2022-09-22T22:34:13.634Z,14.27
2022-09-22T22:36:41.911Z,14.25
2022-09-22T22:39:10.568Z,14.23
2022-09-22T22:41:39.168Z,14.21
2022-09-22T22:44:07.637Z,14.18
2022-09-22T22:46:35.881Z,14.15
2022-09-22T22:49:03.768Z,14.13
2022-09-22T22:51:31.666Z,14.12
2022-09-22T22:53:59.610Z,14.11
2022-09-22T22:56:29.120Z,14.10
2022-09-22T22:58:57.069Z,14.11
2022-09-22T23:01:25.718Z,14.11
2022-09-22T23:03:54.657Z,14.14
2022-09-22T23:06:23.436Z,14.18
2022-09-22T23:08:51.633Z,14.20
2022-09-22T23:11:22.328Z,14.23
2022-09-22T23:13:51.317Z,14.26
2022-09-22T23:16:20.365Z,14.29
2022-09-22T23:18:48.363Z,14.30
2022-09-22T23:21:17.623Z,14.31
2022-09-22T23:23:45.855Z,14.31
2022-09-22T23:26:14.613Z,14.32
2022-09-22T23:28:43.042Z,14.32
2022-09-22T23:31:11.910Z,14.31
2022-09-22T23:33:41.208Z,14.31
2022-09-22T23:36:11.962Z,14.32
2022-09-22T23:38:40.049Z,14.30
2022-09-22T23:41:08.325Z,14.27
2022-09-22T23:43:37.131Z,14.25
2022-09-22T23:46:06.872Z,14.26
2022-09-22T23:48:35.663Z,14.29
2022-09-22T23:51:04.303Z,14.32
2022-09-22T23:53:34.187Z,14.34
2022-09-22T23:56:03.009Z,14.32
2022-09-22T23:58:30.958Z,14.31
